Terminal Aerodrome Forecast
Issued by NWS

Home | Current Version | Previous Version | Text Only | Print | Product List | Glossary On
Versions: 1 2 3 4 5 6 7 8 9 10 11 12 13 14 15 16 17 18 19 20 21
000
FTUS42 KKEY 242300
TAFMTH
TAF
KMTH 242329Z 2500/2524 16005KT P6SM VCSH FEW020 BKN060
     FM250400 23009G15KT 3SM SHRA SCT016 BKN024
     FM251000 27009KT 3SM SHRA SCT010 BKN022
     FM251400 36008G16KT P6SM BKN015 BKN040=

USA.gov is the U.S. government's official web portal to all federal, state and local government web resources and services.